createdAt,value
2024-01-16T00:00:16.364Z,100607.06
2024-01-16T00:02:45.276Z,100605.41
2024-01-16T00:05:13.919Z,100599.44
2024-01-16T00:07:51.908Z,100609.00
2024-01-16T00:10:22.251Z,100615.97
2024-01-16T00:12:51.259Z,100609.97
2024-01-16T00:15:20.177Z,100595.31
2024-01-16T00:17:49.824Z,100590.03
2024-01-16T00:20:19.338Z,100599.06
2024-01-16T00:22:48.157Z,100596.88
2024-01-16T00:25:18.666Z,100597.25
2024-01-16T00:27:51.534Z,100599.47
2024-01-16T00:30:20.717Z,100600.00
2024-01-16T00:32:49.880Z,100601.44
2024-01-16T00:35:19.202Z,100611.50
2024-01-16T00:37:47.926Z,100610.47
2024-01-16T00:40:16.819Z,100616.31
2024-01-16T00:42:45.875Z,100612.72
2024-01-16T00:45:23.476Z,100612.53
2024-01-16T00:47:53.642Z,100620.06
2024-01-16T00:50:23.177Z,100614.88
2024-01-16T00:52:51.873Z,100619.09
2024-01-16T00:55:21.547Z,100609.53
2024-01-16T00:57:51.609Z,100619.78
2024-01-16T01:00:21.945Z,100618.81
2024-01-16T01:02:50.805Z,100616.25
2024-01-16T01:05:20.530Z,100621.41
2024-01-16T01:07:49.208Z,100620.72
2024-01-16T01:10:17.902Z,100617.38
2024-01-16T01:12:46.493Z,100625.22
2024-01-16T01:15:16.391Z,100622.81
2024-01-16T01:17:47.123Z,100613.47
2024-01-16T01:20:16.297Z,100620.59
2024-01-16T01:22:46.912Z,100648.28
2024-01-16T01:25:15.879Z,100652.84
2024-01-16T01:27:44.681Z,100625.69
2024-01-16T01:30:13.988Z,100629.03
2024-01-16T01:32:43.145Z,100632.19
2024-01-16T01:35:13.570Z,100627.66
2024-01-16T01:37:41.499Z,100636.09
2024-01-16T01:40:13.902Z,100628.16
2024-01-16T01:42:44.501Z,100630.56
2024-01-16T01:45:13.632Z,100626.94
2024-01-16T01:47:43.805Z,100625.88
2024-01-16T01:50:15.490Z,100628.44
2024-01-16T01:52:45.929Z,100628.38
2024-01-16T01:55:16.131Z,100630.00
2024-01-16T01:57:45.132Z,100634.22
2024-01-16T02:00:19.091Z,100635.91
2024-01-16T02:02:58.653Z,100647.84
2024-01-16T02:05:29.375Z,100653.88
2024-01-16T02:07:58.285Z,100645.41
2024-01-16T02:10:27.270Z,100660.88
2024-01-16T02:12:55.927Z,100664.31
2024-01-16T02:15:26.167Z,100662.50
2024-01-16T02:17:54.950Z,100662.41
2024-01-16T02:20:23.891Z,100658.81
2024-01-16T02:22:57.417Z,100668.13
2024-01-16T02:25:27.585Z,100665.41
2024-01-16T02:27:56.554Z,100661.91
2024-01-16T02:30:25.456Z,100666.13
2024-01-16T02:32:54.123Z,100659.16
2024-01-16T02:35:22.848Z,100659.16
2024-01-16T02:37:51.676Z,100667.75
2024-01-16T02:40:20.457Z,100662.53
2024-01-16T02:42:50.529Z,100662.41
2024-01-16T02:45:19.297Z,100656.31
2024-01-16T02:47:48.065Z,100658.06
2024-01-16T02:50:16.797Z,100655.47
2024-01-16T02:52:45.349Z,100659.84
2024-01-16T02:55:14.260Z,100659.00
2024-01-16T02:57:42.807Z,100668.50
2024-01-16T03:00:15.189Z,100662.59
2024-01-16T03:02:43.947Z,100657.56
2024-01-16T03:05:13.226Z,100664.41
2024-01-16T03:07:42.155Z,100663.56
2024-01-16T03:10:11.544Z,100664.34
2024-01-16T03:12:40.419Z,100659.16
2024-01-16T03:15:09.481Z,100656.63
2024-01-16T03:17:39.460Z,100661.78
2024-01-16T03:20:10.068Z,100655.66
2024-01-16T03:22:38.631Z,100662.53
2024-01-16T03:25:09.806Z,100657.44
2024-01-16T03:27:38.324Z,100656.59
2024-01-16T03:30:09.661Z,100653.94
2024-01-16T03:32:40.585Z,100652.22
2024-01-16T03:35:10.328Z,100657.38
2024-01-16T03:37:41.210Z,100656.59
2024-01-16T03:40:13.229Z,100649.84
2024-01-16T03:42:41.790Z,100650.72
2024-01-16T03:45:14.189Z,100642.13
2024-01-16T03:47:46.335Z,100641.38
2024-01-16T03:50:15.221Z,100639.66
2024-01-16T03:52:43.755Z,100631.03
2024-01-16T03:55:12.300Z,100625.88
2024-01-16T03:57:40.706Z,100631.91
2024-01-16T04:00:13.819Z,100637.91
2024-01-16T04:02:42.415Z,100639.63
2024-01-16T04:05:12.535Z,100644.78
2024-01-16T04:07:41.139Z,100643.94
2024-01-16T04:10:10.622Z,100643.91
2024-01-16T04:12:39.806Z,100643.91
2024-01-16T04:15:09.778Z,100644.78
2024-01-16T04:17:38.389Z,100646.50
2024-01-16T04:20:09.103Z,100645.72
2024-01-16T04:22:39.132Z,100643.19
2024-01-16T04:25:08.529Z,100641.56
2024-01-16T04:27:37.175Z,100626.25
2024-01-16T04:30:06.942Z,100634.84
2024-01-16T04:32:35.753Z,100624.53
2024-01-16T04:35:04.946Z,100625.50
2024-01-16T04:37:33.442Z,100616.81
2024-01-16T04:40:03.429Z,100623.72
2024-01-16T04:42:31.904Z,100631.44
2024-01-16T04:45:00.395Z,100627.19
2024-01-16T04:47:28.922Z,100628.06
2024-01-16T04:49:57.575Z,100625.50
2024-01-16T04:52:26.088Z,100623.88
2024-01-16T04:54:54.970Z,100618.72
2024-01-16T04:57:25.377Z,100617.81
2024-01-16T04:59:53.897Z,100618.72
2024-01-16T05:02:22.458Z,100622.97
2024-01-16T05:04:53.283Z,100623.88
2024-01-16T05:07:22.168Z,100619.59
2024-01-16T05:09:50.944Z,100620.47
2024-01-16T05:12:23.838Z,100621.41
2024-01-16T05:14:53.811Z,100626.63
2024-01-16T05:17:22.498Z,100619.78
2024-01-16T05:19:51.093Z,100622.41
2024-01-16T05:22:19.942Z,100622.47
2024-01-16T05:24:49.148Z,100629.44
2024-01-16T05:27:17.702Z,100627.78
2024-01-16T05:29:46.317Z,100636.44
2024-01-16T05:32:16.638Z,100628.75
2024-01-16T05:34:45.771Z,100630.38
2024-01-16T05:37:15.209Z,100628.63
2024-01-16T05:39:43.822Z,100637.16
2024-01-16T05:42:14.307Z,100638.94
2024-01-16T05:44:43.352Z,100638.06
2024-01-16T05:47:12.765Z,100625.97
2024-01-16T05:49:44.064Z,100627.75
2024-01-16T05:52:12.694Z,100614.88
2024-01-16T05:54:41.474Z,100612.31
2024-01-16T05:57:10.298Z,100621.78
2024-01-16T05:59:38.910Z,100618.41
2024-01-16T06:02:07.870Z,100627.03
2024-01-16T06:04:37.384Z,100626.25
2024-01-16T06:07:10.049Z,100628.94
2024-01-16T06:09:42.246Z,100626.50
2024-01-16T06:12:11.064Z,100630.94
2024-01-16T06:14:39.579Z,100631.19
2024-01-16T06:17:09.607Z,100619.41
2024-01-16T06:19:38.261Z,100622.34
2024-01-16T06:22:07.587Z,100610.59
2024-01-16T06:24:38.542Z,100595.22
2024-01-16T06:27:08.488Z,100609.06
2024-01-16T06:29:37.057Z,100614.22
2024-01-16T06:32:06.214Z,100620.19
2024-01-16T06:34:35.089Z,100627.94
2024-01-16T06:37:03.656Z,100628.69
2024-01-16T06:39:32.273Z,100618.31
2024-01-16T06:42:02.497Z,100626.06
2024-01-16T06:44:31.012Z,100629.47
2024-01-16T06:46:59.441Z,100626.81
2024-01-16T06:49:28.248Z,100636.25
2024-01-16T06:51:58.388Z,100633.72
2024-01-16T06:54:27.179Z,100639.88
2024-01-16T06:56:55.854Z,100639.94
2024-01-16T06:59:26.064Z,100641.63
2024-01-16T07:01:55.964Z,100637.31
2024-01-16T07:04:24.812Z,100636.44
2024-01-16T07:06:53.320Z,100638.94
2024-01-16T07:09:22.163Z,100649.94
2024-01-16T07:11:50.887Z,100641.16
2024-01-16T07:14:19.497Z,100637.56
2024-01-16T07:16:50.998Z,100635.75
2024-01-16T07:19:20.027Z,100633.94
2024-01-16T07:21:48.836Z,100642.44
2024-01-16T07:24:17.337Z,100641.41
2024-01-16T07:26:45.839Z,100637.03
2024-01-16T07:29:14.266Z,100645.59
2024-01-16T07:31:42.828Z,100636.91
2024-01-16T07:34:13.015Z,100642.91
2024-01-16T07:36:41.665Z,100648.94
2024-01-16T07:39:10.394Z,100648.94
2024-01-16T07:41:38.921Z,100648.09
2024-01-16T07:44:07.372Z,100650.75
2024-01-16T07:46:35.787Z,100656.00
2024-01-16T07:49:04.246Z,100653.50
2024-01-16T07:51:34.111Z,100651.88
2024-01-16T07:54:09.562Z,100656.25
2024-01-16T07:56:39.973Z,100652.94
2024-01-16T07:59:08.641Z,100650.59
2024-01-16T08:01:37.051Z,100649.91
2024-01-16T08:04:06.048Z,100650.09
2024-01-16T08:06:36.607Z,100653.59
2024-01-16T08:09:05.695Z,100664.03
2024-01-16T08:11:37.030Z,100668.50
2024-01-16T08:14:06.098Z,100665.16
2024-01-16T08:16:34.908Z,100676.44
2024-01-16T08:19:04.750Z,100673.19
2024-01-16T08:21:33.461Z,100669.91
2024-01-16T08:24:03.555Z,100674.38
2024-01-16T08:26:32.241Z,100675.41
2024-01-16T08:29:01.208Z,100674.72
2024-01-16T08:31:29.739Z,100679.97
2024-01-16T08:33:58.978Z,100678.41
2024-01-16T08:36:27.572Z,100680.28
2024-01-16T08:38:56.937Z,100688.91
2024-01-16T08:41:27.044Z,100686.38
2024-01-16T08:43:55.543Z,100683.81
2024-01-16T08:46:24.069Z,100687.19
2024-01-16T08:48:52.700Z,100688.84
2024-01-16T08:51:21.675Z,100687.84
2024-01-16T08:53:50.427Z,100688.66
2024-01-16T08:56:19.280Z,100684.44
2024-01-16T08:58:49.457Z,100680.22
2024-01-16T09:01:18.287Z,100674.38
2024-01-16T09:03:47.691Z,100678.84
2024-01-16T09:06:16.765Z,100682.44
2024-01-16T09:08:45.922Z,100687.78
2024-01-16T09:11:14.537Z,100679.25
2024-01-16T09:13:43.102Z,100689.75
2024-01-16T09:16:13.573Z,100679.66
2024-01-16T09:18:42.194Z,100696.09
2024-01-16T09:21:11.257Z,100697.97
2024-01-16T09:23:39.935Z,100695.56
2024-01-16T09:26:08.485Z,100693.06
2024-01-16T09:28:37.062Z,100697.63
2024-01-16T09:31:06.248Z,100696.16
2024-01-16T09:33:37.911Z,100692.09
2024-01-16T09:36:07.261Z,100688.13
2024-01-16T09:38:35.942Z,100696.97
2024-01-16T09:41:04.785Z,100700.53
2024-01-16T09:43:35.445Z,100698.84
2024-01-16T09:46:07.461Z,100692.81
2024-01-16T09:48:37.573Z,100699.84
2024-01-16T09:51:10.543Z,100695.78
2024-01-16T09:53:39.162Z,100693.50
2024-01-16T09:56:14.243Z,100693.59
2024-01-16T09:58:47.027Z,100695.34
2024-01-16T10:01:15.697Z,100696.88
2024-01-16T10:03:47.885Z,100696.78
2024-01-16T10:08:47.975Z,100694.84
2024-01-16T10:11:16.627Z,100691.41
2024-01-16T10:13:51.670Z,100684.59
2024-01-16T10:16:24.328Z,100689.03
2024-01-16T10:19:07.313Z,100693.38
2024-01-16T10:21:36.142Z,100691.72
2024-01-16T10:24:14.508Z,100693.50
2024-01-16T10:26:43.761Z,100690.19
2024-01-16T10:29:12.331Z,100686.75
2024-01-16T10:31:41.663Z,100691.09
2024-01-16T10:34:24.578Z,100689.41
2024-01-16T10:36:55.593Z,100689.44
2024-01-16T10:39:32.297Z,100680.03
2024-01-16T10:42:12.960Z,100675.06
2024-01-16T10:44:56.936Z,100676.16
2024-01-16T10:47:25.730Z,100680.63
2024-01-16T10:49:56.432Z,100675.72
2024-01-16T10:52:30.946Z,100673.28
2024-01-16T10:55:05.116Z,100673.28
2024-01-16T10:57:35.000Z,100668.31
2024-01-16T11:00:08.309Z,100673.59
2024-01-16T11:02:43.314Z,100670.16
2024-01-16T11:05:14.879Z,100674.50
2024-01-16T11:07:45.244Z,100671.19
2024-01-16T11:10:14.333Z,100668.78
2024-01-16T11:12:45.050Z,100669.81
2024-01-16T11:15:14.864Z,100667.25
2024-01-16T11:17:46.796Z,100672.50
2024-01-16T11:20:37.452Z,100652.66
2024-01-16T11:23:06.803Z,100664.66
2024-01-16T11:25:36.624Z,100661.22
2024-01-16T11:28:13.578Z,100650.94
2024-01-16T11:30:44.202Z,100656.88
2024-01-16T11:33:45.347Z,100652.44
2024-01-16T11:36:56.886Z,100649.16
2024-01-16T11:39:27.950Z,100653.41
2024-01-16T11:42:00.909Z,100658.56
2024-01-16T11:44:48.708Z,100647.41
2024-01-16T11:47:22.507Z,100651.81
2024-01-16T11:49:53.570Z,100641.53
2024-01-16T11:52:45.790Z,100631.03
2024-01-16T11:55:28.604Z,100635.16
2024-01-16T11:58:20.695Z,100642.91
2024-01-16T12:00:54.148Z,100635.94
2024-01-16T12:03:31.886Z,100643.69
2024-01-16T12:06:08.416Z,100644.28
2024-01-16T12:08:39.182Z,100639.09
2024-01-16T12:11:08.349Z,100624.63
2024-01-16T12:13:37.256Z,100627.38
2024-01-16T12:16:07.114Z,100628.50
2024-01-16T12:18:42.571Z,100625.13
2024-01-16T12:21:15.873Z,100614.13
2024-01-16T12:23:52.717Z,100616.78
2024-01-16T12:26:29.614Z,100616.78
2024-01-16T12:29:00.399Z,100613.44
2024-01-16T12:31:30.677Z,100615.13
2024-01-16T12:34:09.804Z,100614.25
2024-01-16T12:36:40.690Z,100608.47
2024-01-16T12:39:15.009Z,100604.31
2024-01-16T12:41:46.654Z,100594.13
2024-01-16T12:44:17.956Z,100591.53
2024-01-16T12:46:56.445Z,100596.84
2024-01-16T12:49:26.127Z,100594.53
2024-01-16T12:52:20.238Z,100600.97
2024-01-16T12:54:51.470Z,100596.22
2024-01-16T12:57:21.945Z,100587.94
2024-01-16T12:59:53.098Z,100588.88
2024-01-16T13:02:24.240Z,100581.22
2024-01-16T13:05:01.422Z,100585.69
2024-01-16T13:07:32.738Z,100586.78
2024-01-16T13:10:17.286Z,100578.38
2024-01-16T13:12:46.731Z,100570.91
2024-01-16T13:15:18.422Z,100567.81
2024-01-16T13:17:48.438Z,100565.94
2024-01-16T13:20:17.813Z,100559.34
2024-01-16T13:22:48.809Z,100552.81
2024-01-16T13:25:22.627Z,100554.63
2024-01-16T13:27:51.380Z,100553.09
2024-01-16T13:30:22.120Z,100546.41
2024-01-16T13:32:51.746Z,100549.00
2024-01-16T13:35:20.722Z,100543.22
2024-01-16T13:37:49.520Z,100544.75
2024-01-16T13:40:25.331Z,100548.16
2024-01-16T13:42:54.487Z,100556.47
2024-01-16T13:45:24.065Z,100550.34
2024-01-16T13:47:52.743Z,100546.13
2024-01-16T13:50:21.715Z,100548.13
2024-01-16T13:52:50.913Z,100545.81
2024-01-16T13:55:21.356Z,100539.22
2024-01-16T13:57:53.461Z,100535.28
2024-01-16T14:00:22.485Z,100541.75
2024-01-16T14:02:52.008Z,100534.59
2024-01-16T14:05:22.116Z,100532.72
2024-01-16T14:07:53.746Z,100533.59
2024-01-16T14:10:26.643Z,100525.09
2024-01-16T14:12:56.023Z,100532.06
2024-01-16T14:15:25.633Z,100531.25
2024-01-16T14:17:56.965Z,100531.25
2024-01-16T14:20:29.149Z,100529.47
2024-01-16T14:22:58.932Z,100526.84
2024-01-16T14:25:33.018Z,100523.50
2024-01-16T14:28:04.786Z,100526.09
2024-01-16T14:30:35.885Z,100523.38
2024-01-16T14:33:08.534Z,100522.44
2024-01-16T14:35:40.352Z,100516.28
2024-01-16T14:38:09.330Z,100518.78
2024-01-16T14:40:39.541Z,100517.41
2024-01-16T14:43:08.532Z,100519.13
2024-01-16T14:45:37.476Z,100523.13
2024-01-16T14:48:09.084Z,100515.78
2024-01-16T14:50:38.105Z,100515.34
2024-01-16T14:53:07.329Z,100520.19
2024-01-16T14:55:36.502Z,100519.06
2024-01-16T14:58:08.397Z,100520.59
2024-01-16T15:00:37.480Z,100524.78
2024-01-16T15:03:08.292Z,100519.50
2024-01-16T15:05:37.029Z,100519.47
2024-01-16T15:08:06.184Z,100519.56
2024-01-16T15:10:34.895Z,100512.69
2024-01-16T15:13:03.727Z,100516.09
2024-01-16T15:15:33.868Z,100515.19
2024-01-16T15:18:03.300Z,100513.31
2024-01-16T15:20:32.188Z,100510.53
2024-01-16T15:23:01.536Z,100514.75
2024-01-16T15:25:30.152Z,100511.09
2024-01-16T15:27:58.675Z,100500.59
2024-01-16T15:30:33.012Z,100501.25
2024-01-16T15:33:04.739Z,100491.66
2024-01-16T15:35:34.191Z,100493.25
2024-01-16T15:38:04.148Z,100498.22
2024-01-16T15:40:33.328Z,100493.78
2024-01-16T15:43:02.522Z,100489.31
2024-01-16T15:45:31.618Z,100490.94
2024-01-16T15:48:01.179Z,100490.81
2024-01-16T15:50:33.749Z,100484.69
2024-01-16T15:53:02.919Z,100493.22
2024-01-16T15:55:31.693Z,100500.00
2024-01-16T15:58:01.093Z,100499.03
2024-01-16T16:00:29.887Z,100498.91
2024-01-16T16:03:00.872Z,100503.16
2024-01-16T16:05:31.054Z,100496.19
2024-01-16T16:07:59.688Z,100496.97
2024-01-16T16:10:28.684Z,100501.06
2024-01-16T16:13:00.888Z,100493.22
2024-01-16T16:15:30.690Z,100489.72
2024-01-16T16:17:59.871Z,100487.03
2024-01-16T16:20:28.686Z,100486.09
2024-01-16T16:22:58.953Z,100490.38
2024-01-16T16:25:28.167Z,100492.03
2024-01-16T16:27:57.254Z,100488.50
2024-01-16T16:30:26.118Z,100484.16
2024-01-16T16:32:55.298Z,100491.03
2024-01-16T16:35:26.531Z,100492.66
2024-01-16T16:37:55.204Z,100494.31
2024-01-16T16:40:25.327Z,100496.00
2024-01-16T16:42:56.510Z,100497.72
2024-01-16T16:45:25.993Z,100501.25
2024-01-16T16:47:54.746Z,100499.69
2024-01-16T16:50:24.218Z,100510.00
2024-01-16T16:52:53.005Z,100502.19
2024-01-16T16:55:22.259Z,100507.16
2024-01-16T16:57:53.256Z,100499.31
2024-01-16T17:00:22.975Z,100514.59
2024-01-16T17:02:51.838Z,100508.34
2024-01-16T17:05:21.474Z,100508.16
2024-01-16T17:07:50.901Z,100505.50
2024-01-16T17:10:20.243Z,100498.47
2024-01-16T17:12:49.461Z,100505.25
2024-01-16T17:15:19.753Z,100496.59
2024-01-16T17:17:49.258Z,100502.47
2024-01-16T17:20:19.241Z,100492.97
2024-01-16T17:22:48.052Z,100486.06
2024-01-16T17:25:16.866Z,100487.63
2024-01-16T17:27:50.530Z,100487.56
2024-01-16T17:30:20.928Z,100478.03
2024-01-16T17:32:49.746Z,100478.09
2024-01-16T17:35:22.974Z,100478.09
2024-01-16T17:37:51.683Z,100486.63
2024-01-16T17:40:20.970Z,100490.88
2024-01-16T17:42:50.155Z,100494.25
2024-01-16T17:45:20.564Z,100489.94
2024-01-16T17:47:49.430Z,100479.56
2024-01-16T17:50:18.237Z,100486.47
2024-01-16T17:52:47.006Z,100486.47
2024-01-16T17:55:15.732Z,100478.78
2024-01-16T17:57:44.645Z,100485.84
2024-01-16T18:00:14.703Z,100485.84
2024-01-16T18:02:45.051Z,100489.44
2024-01-16T18:05:18.394Z,100477.59
2024-01-16T18:07:47.265Z,100488.28
2024-01-16T18:10:17.161Z,100477.47
2024-01-16T18:12:45.681Z,100476.09
2024-01-16T18:15:16.597Z,100472.09
2024-01-16T18:17:49.694Z,100464.63
2024-01-16T18:20:23.051Z,100451.94
2024-01-16T18:22:57.076Z,100454.69
2024-01-16T18:25:26.454Z,100448.88
2024-01-16T18:27:58.233Z,100454.19
2024-01-16T18:30:28.266Z,100455.16
2024-01-16T18:32:59.154Z,100452.72
2024-01-16T18:35:28.018Z,100443.34
2024-01-16T18:37:57.054Z,100446.06
2024-01-16T18:40:27.132Z,100443.50
2024-01-16T18:42:55.890Z,100444.44
2024-01-16T18:45:25.259Z,100439.28
2024-01-16T18:47:55.144Z,100440.19
2024-01-16T18:50:26.351Z,100436.78
2024-01-16T18:52:55.980Z,100443.66
2024-01-16T18:55:24.815Z,100435.88
2024-01-16T18:57:56.095Z,100430.72
2024-01-16T19:00:24.957Z,100432.47
2024-01-16T19:02:54.146Z,100425.56
2024-01-16T19:05:24.267Z,100415.22
2024-01-16T19:07:52.932Z,100421.16
2024-01-16T19:10:25.120Z,100421.16
2024-01-16T19:12:54.023Z,100415.91
2024-01-16T19:15:22.931Z,100410.66
2024-01-16T19:17:54.426Z,100406.03
2024-01-16T19:20:25.088Z,100405.69
2024-01-16T19:22:56.597Z,100395.75
2024-01-16T19:25:26.917Z,100391.06
2024-01-16T19:27:56.063Z,100390.75
2024-01-16T19:30:25.042Z,100397.34
2024-01-16T19:32:54.348Z,100380.78
2024-01-16T19:35:24.683Z,100385.72
2024-01-16T19:37:53.501Z,100381.22
2024-01-16T19:40:22.609Z,100376.78
2024-01-16T19:42:51.548Z,100382.66
2024-01-16T19:45:21.418Z,100377.28
2024-01-16T19:47:51.025Z,100380.56
2024-01-16T19:50:23.738Z,100366.69
2024-01-16T19:52:58.154Z,100356.38
2024-01-16T19:55:27.472Z,100356.28
2024-01-16T19:57:58.449Z,100358.75
2024-01-16T20:00:27.741Z,100361.19
2024-01-16T20:02:57.495Z,100356.09
2024-01-16T20:05:32.603Z,100347.69
2024-01-16T20:08:04.222Z,100348.72
2024-01-16T20:10:33.779Z,100347.25
2024-01-16T20:13:04.154Z,100334.59
2024-01-16T20:15:33.676Z,100332.31
2024-01-16T20:18:04.293Z,100329.19
2024-01-16T20:20:34.456Z,100327.81
2024-01-16T20:23:06.040Z,100331.53
2024-01-16T20:25:35.024Z,100317.94
2024-01-16T20:28:06.810Z,100312.16
2024-01-16T20:30:37.183Z,100315.78
2024-01-16T20:33:07.040Z,100308.22
2024-01-16T20:35:35.986Z,100306.50
2024-01-16T20:38:08.321Z,100297.78
2024-01-16T20:40:38.485Z,100300.31
2024-01-16T20:43:07.899Z,100290.09
2024-01-16T20:45:36.862Z,100291.97
2024-01-16T20:48:07.379Z,100290.38
2024-01-16T20:50:36.508Z,100290.53
2024-01-16T20:53:07.355Z,100284.66
2024-01-16T20:55:38.539Z,100293.34
2024-01-16T20:58:08.651Z,100284.84
2024-01-16T21:00:38.931Z,100263.44
2024-01-16T21:03:11.447Z,100268.69
2024-01-16T21:05:42.106Z,100261.00
2024-01-16T21:08:12.640Z,100254.19
2024-01-16T21:10:42.220Z,100261.94
2024-01-16T21:13:11.727Z,100258.56
2024-01-16T21:15:40.417Z,100256.06
2024-01-16T21:18:09.357Z,100256.13
2024-01-16T21:20:38.003Z,100239.84
2024-01-16T21:23:07.273Z,100228.66
2024-01-16T21:25:37.177Z,100229.50
2024-01-16T21:28:06.744Z,100239.00
2024-01-16T21:30:36.247Z,100228.66
2024-01-16T21:33:06.759Z,100234.69
2024-01-16T21:35:35.896Z,100237.25
2024-01-16T21:38:05.254Z,100226.09
2024-01-16T21:40:35.347Z,100229.50
2024-01-16T21:43:06.037Z,100229.50
2024-01-16T21:45:34.754Z,100228.66
2024-01-16T21:48:03.580Z,100226.94
2024-01-16T21:50:37.638Z,100220.78
2024-01-16T21:53:07.341Z,100214.69
2024-01-16T21:55:36.975Z,100213.81
2024-01-16T21:58:07.597Z,100212.00
2024-01-16T22:00:36.442Z,100212.84
2024-01-16T22:03:06.446Z,100205.84
2024-01-16T22:05:36.094Z,100194.50
2024-01-16T22:08:06.882Z,100202.97
2024-01-16T22:10:40.317Z,100190.72
2024-01-16T22:13:12.791Z,100194.75
2024-01-16T22:15:41.493Z,100188.53
2024-01-16T22:18:10.278Z,100193.56
2024-01-16T22:20:39.184Z,100184.91
2024-01-16T22:23:07.851Z,100178.00
2024-01-16T22:25:36.451Z,100169.53
2024-01-16T22:28:05.806Z,100176.63
2024-01-16T22:30:36.851Z,100175.00
2024-01-16T22:33:07.638Z,100174.38
2024-01-16T22:35:36.995Z,100171.03
2024-01-16T22:38:06.058Z,100166.88
2024-01-16T22:40:37.822Z,100173.03
2024-01-16T22:43:07.113Z,100168.78
2024-01-16T22:45:37.975Z,100152.56
2024-01-16T22:48:12.699Z,100157.72
2024-01-16T22:50:43.202Z,100146.59
2024-01-16T22:53:12.756Z,100150.06
2024-01-16T22:55:42.762Z,100143.25
2024-01-16T22:58:12.873Z,100138.09
2024-01-16T23:00:43.701Z,100129.53
2024-01-16T23:03:16.600Z,100120.03
2024-01-16T23:05:45.563Z,100114.88
2024-01-16T23:08:14.646Z,100119.09
2024-01-16T23:10:43.953Z,100117.31
2024-01-16T23:13:12.630Z,100112.91
2024-01-16T23:15:46.891Z,100102.56
2024-01-16T23:18:17.465Z,100103.47
2024-01-16T23:20:46.928Z,100094.91
2024-01-16T23:23:19.134Z,100099.31
2024-01-16T23:25:48.028Z,100090.72
2024-01-16T23:28:16.563Z,100087.38
2024-01-16T23:30:46.555Z,100079.66
2024-01-16T23:33:15.399Z,100068.47
2024-01-16T23:35:44.907Z,100056.31
2024-01-16T23:38:13.620Z,100050.91
2024-01-16T23:40:42.299Z,100044.72
2024-01-16T23:43:12.130Z,100035.09
2024-01-16T23:45:41.716Z,100041.88
2024-01-16T23:48:11.988Z,100030.59
2024-01-16T23:50:41.814Z,100027.06
2024-01-16T23:53:11.495Z,100023.56
2024-01-16T23:55:40.629Z,100030.38
2024-01-16T23:58:10.262Z,100030.38
